Terminal Aerodrome Forecast
Issued by NWS

Home | Current Version | Previous Version | Text Only | Print | Product List | Glossary On
Versions: 1 2 3 4 5 6 7 8 9 10 11 12 13 14 15 16 17 18 19 20 21 22 23 24
000
FTUS41 KOKX 290500
TAFTEB
TAF
KTEB 290528Z 2906/3006 33008KT P6SM BKN150
     FM291000 34007KT P6SM BKN250
     FM291800 32007KT P6SM FEW035 BKN250
     FM300000 33005KT P6SM FEW040 BKN250=

USA.gov is the U.S. government's official web portal to all federal, state and local government web resources and services.